createdAt,value
2023-03-28T00:02:02.417Z,3.30
2023-03-28T00:04:11.690Z,4.55
2023-03-28T00:06:19.294Z,5.55
2023-03-28T00:08:24.517Z,5.00
2023-03-28T00:10:30.241Z,4.65
2023-03-28T00:12:35.371Z,3.90
2023-03-28T00:14:43.612Z,3.90
2023-03-28T00:16:48.814Z,4.30
2023-03-28T00:18:54.300Z,3.83
2023-03-28T00:21:00.255Z,4.43
2023-03-28T00:23:05.208Z,5.82
2023-03-28T00:25:12.026Z,3.88
2023-03-28T00:27:17.932Z,3.35
2023-03-28T00:29:27.486Z,3.75
2023-03-28T00:31:38.667Z,3.17
2023-03-28T00:33:47.880Z,2.83
2023-03-28T00:35:52.859Z,2.72
2023-03-28T00:37:58.895Z,3.25
2023-03-28T00:40:08.450Z,2.67
2023-03-28T00:42:17.237Z,2.88
2023-03-28T00:44:50.978Z,2.53
2023-03-28T00:46:59.330Z,3.08
2023-03-28T00:49:08.493Z,2.70
2023-03-28T00:51:22.692Z,2.35
2023-03-28T00:53:29.183Z,2.80
2023-03-28T00:55:40.350Z,3.10
2023-03-28T00:57:47.380Z,2.70
2023-03-28T00:59:52.676Z,2.60
2023-03-28T01:02:00.845Z,3.00
2023-03-28T01:04:06.943Z,2.72
2023-03-28T01:06:17.252Z,2.92
2023-03-28T01:08:25.836Z,2.72
2023-03-28T01:10:34.087Z,2.72
2023-03-28T01:12:39.302Z,2.30
2023-03-28T01:14:47.043Z,2.88
2023-03-28T01:16:52.748Z,3.45
2023-03-28T01:19:02.873Z,3.15
2023-03-28T01:21:57.074Z,1.70
2023-03-28T01:24:58.201Z,1.00
2023-03-28T01:27:11.588Z,1.50
2023-03-28T01:30:01.831Z,1.30
2023-03-28T01:33:09.958Z,1.08
2023-03-28T01:35:55.759Z,0.93
2023-03-28T01:38:12.316Z,1.73
2023-03-28T01:40:32.621Z,0.90
2023-03-28T01:42:56.757Z,1.13
2023-03-28T01:45:15.176Z,1.33
2023-03-28T01:47:29.663Z,1.00
2023-03-28T01:49:45.064Z,1.25
2023-03-28T01:52:01.038Z,1.92
2023-03-28T01:54:18.948Z,1.30
2023-03-28T01:56:33.203Z,1.20
2023-03-28T01:58:48.580Z,1.55
2023-03-28T02:01:09.149Z,1.10
2023-03-28T02:03:21.648Z,1.05
2023-03-28T02:05:37.325Z,1.00
2023-03-28T02:07:48.634Z,1.48
2023-03-28T02:09:58.977Z,1.33
2023-03-28T02:14:48.110Z,1.60
2023-03-28T02:17:21.205Z,2.03
2023-03-28T02:19:58.716Z,2.60
2023-03-28T02:22:30.162Z,2.08
2023-03-28T02:24:50.617Z,2.50
2023-03-28T02:29:51.057Z,3.50
2023-03-28T02:32:15.189Z,3.03
2023-03-28T02:34:20.492Z,3.67
2023-03-28T02:36:43.952Z,3.60
2023-03-28T02:39:08.102Z,3.53
2023-03-28T02:41:27.998Z,3.65
2023-03-28T02:43:57.753Z,3.35
2023-03-28T02:46:21.688Z,3.42
2023-03-28T02:48:46.518Z,3.50
2023-03-28T02:51:06.750Z,3.45
2023-03-28T02:53:17.713Z,3.42
2023-03-28T02:55:32.192Z,3.47
2023-03-28T02:57:49.368Z,3.65
2023-03-28T03:00:01.462Z,4.00
2023-03-28T03:02:08.474Z,3.83
2023-03-28T03:04:17.419Z,4.35
2023-03-28T03:06:24.228Z,3.53
2023-03-28T03:08:30.402Z,3.97
2023-03-28T03:10:36.590Z,3.53
2023-03-28T03:12:43.867Z,3.75
2023-03-28T03:14:50.910Z,3.90
2023-03-28T03:17:17.321Z,3.95
2023-03-28T03:19:22.474Z,3.95
2023-03-28T03:21:28.278Z,3.95
2023-03-28T03:23:33.343Z,3.90
2023-03-28T03:25:38.831Z,3.88
2023-03-28T03:28:02.121Z,3.80
2023-03-28T03:30:10.258Z,4.18
2023-03-28T03:32:40.061Z,4.15
2023-03-28T03:34:47.857Z,3.58
2023-03-28T03:36:55.531Z,3.50
2023-03-28T03:39:04.845Z,3.80
2023-03-28T03:41:10.280Z,3.70
2023-03-28T03:43:17.652Z,3.58
2023-03-28T03:45:24.645Z,3.55
2023-03-28T03:47:29.855Z,3.80
2023-03-28T03:49:38.780Z,3.95
2023-03-28T03:51:46.399Z,4.22
2023-03-28T03:53:56.431Z,3.40
2023-03-28T03:56:11.034Z,4.10
2023-03-28T03:58:31.571Z,4.90
2023-03-28T04:00:44.879Z,3.72
2023-03-28T04:03:04.777Z,3.35
2023-03-28T04:05:14.524Z,3.40
2023-03-28T04:07:39.101Z,3.80
2023-03-28T04:09:46.422Z,3.97
2023-03-28T04:11:54.630Z,4.15
2023-03-28T04:14:00.680Z,3.30
2023-03-28T04:16:08.703Z,4.35
2023-03-28T04:18:23.158Z,3.70
2023-03-28T04:20:31.997Z,4.90
2023-03-28T04:22:45.432Z,4.38
2023-03-28T04:24:53.961Z,4.68
2023-03-28T04:27:17.802Z,4.15
2023-03-28T04:29:30.995Z,3.50
2023-03-28T04:32:05.817Z,4.43
2023-03-28T04:34:37.724Z,4.50
2023-03-28T04:36:54.367Z,4.28
2023-03-28T04:39:02.689Z,3.78
2023-03-28T04:41:27.115Z,4.05
2023-03-28T04:43:56.887Z,4.50
2023-03-28T04:46:03.942Z,4.43
2023-03-28T04:48:10.302Z,4.37
2023-03-28T04:50:15.819Z,4.15
2023-03-28T04:52:24.020Z,4.40
2023-03-28T04:54:30.677Z,4.28
2023-03-28T04:56:46.719Z,4.32
2023-03-28T04:58:54.707Z,4.78
2023-03-28T05:01:13.116Z,4.57
2023-03-28T05:03:38.135Z,3.97
2023-03-28T05:05:44.538Z,4.60
2023-03-28T05:07:56.494Z,4.32
2023-03-28T05:10:01.999Z,4.90
2023-03-28T05:12:16.864Z,4.10
2023-03-28T05:14:40.800Z,4.57
2023-03-28T05:16:52.989Z,4.60
2023-03-28T05:19:18.243Z,4.90
2023-03-28T05:21:36.860Z,4.28
2023-03-28T05:23:44.804Z,4.35
2023-03-28T05:26:02.393Z,5.05
2023-03-28T05:28:11.303Z,4.60
2023-03-28T05:30:28.419Z,4.80
2023-03-28T05:32:35.797Z,4.22
2023-03-28T05:34:42.217Z,4.88
2023-03-28T05:36:48.150Z,4.80
2023-03-28T05:39:18.978Z,4.38
2023-03-28T05:41:24.292Z,4.78
2023-03-28T05:43:30.137Z,4.97
2023-03-28T05:45:35.921Z,4.32
2023-03-28T05:47:52.010Z,4.93
2023-03-28T05:49:58.269Z,4.15
2023-03-28T05:52:03.560Z,4.40
2023-03-28T05:54:09.166Z,4.30
2023-03-28T05:56:20.261Z,4.60
2023-03-28T05:58:26.018Z,7.50
2023-03-28T06:00:33.139Z,8.07
2023-03-28T06:02:41.174Z,6.50
2023-03-28T06:04:46.803Z,5.53
2023-03-28T06:06:55.726Z,3.45
2023-03-28T06:09:03.736Z,2.67
2023-03-28T06:11:22.492Z,2.80
2023-03-28T06:13:43.356Z,2.28
2023-03-28T06:15:51.080Z,2.55
2023-03-28T06:18:05.215Z,2.63
2023-03-28T06:20:17.203Z,3.40
2023-03-28T06:22:22.646Z,2.75
2023-03-28T06:24:44.842Z,2.33
2023-03-28T06:27:00.391Z,2.15
2023-03-28T06:29:06.316Z,2.80
2023-03-28T06:31:19.885Z,2.83
2023-03-28T06:33:25.930Z,2.42
2023-03-28T06:35:30.982Z,2.75
2023-03-28T06:37:36.142Z,2.28
2023-03-28T06:39:45.742Z,3.72
2023-03-28T06:41:54.656Z,2.33
2023-03-28T06:44:08.331Z,2.38
2023-03-28T06:46:37.508Z,2.60
2023-03-28T06:48:43.614Z,2.25
2023-03-28T06:51:12.972Z,2.20
2023-03-28T06:53:26.025Z,2.28
2023-03-28T06:55:31.305Z,2.28
2023-03-28T06:57:41.529Z,1.95
2023-03-28T07:00:01.288Z,2.17
2023-03-28T07:02:28.982Z,2.60
2023-03-28T07:04:42.851Z,2.22
2023-03-28T07:06:50.063Z,1.83
2023-03-28T07:08:56.570Z,2.13
2023-03-28T07:11:11.408Z,2.63
2023-03-28T07:13:23.583Z,1.85
2023-03-28T07:15:38.538Z,1.95
2023-03-28T07:17:43.646Z,1.17
2023-03-28T07:19:51.566Z,1.90
2023-03-28T07:21:56.806Z,2.15
2023-03-28T07:24:04.098Z,1.80
2023-03-28T07:26:24.222Z,1.98
2023-03-28T07:28:32.266Z,2.00
2023-03-28T07:32:53.392Z,1.70
2023-03-28T07:35:02.481Z,2.40
2023-03-28T07:37:12.905Z,1.90
2023-03-28T07:39:45.381Z,2.10
2023-03-28T07:41:54.993Z,1.08
2023-03-28T07:44:03.061Z,2.42
2023-03-28T07:46:11.644Z,2.00
2023-03-28T07:48:16.896Z,1.60
2023-03-28T07:50:25.005Z,2.20
2023-03-28T07:52:31.456Z,1.80
2023-03-28T07:54:38.628Z,1.55
2023-03-28T07:56:45.217Z,1.52
2023-03-28T07:59:04.730Z,2.05
2023-03-28T08:01:14.184Z,1.77
2023-03-28T08:03:28.688Z,0.98
2023-03-28T08:05:39.209Z,2.05
2023-03-28T08:07:46.151Z,2.05
2023-03-28T08:09:51.785Z,1.70
2023-03-28T08:12:09.052Z,1.88
2023-03-28T08:14:19.427Z,2.35
2023-03-28T08:16:25.927Z,1.95
2023-03-28T08:18:32.186Z,1.98
2023-03-28T08:20:38.960Z,2.38
2023-03-28T08:22:54.334Z,2.58
2023-03-28T08:25:21.884Z,2.25
2023-03-28T08:27:48.119Z,1.92
2023-03-28T08:29:55.765Z,2.13
2023-03-28T08:32:04.140Z,1.92
2023-03-28T08:34:09.743Z,1.50
2023-03-28T08:36:18.704Z,1.88
2023-03-28T08:38:24.579Z,2.10
2023-03-28T08:40:34.302Z,2.38
2023-03-28T08:43:05.725Z,1.95
2023-03-28T08:45:38.076Z,2.13
2023-03-28T08:47:56.532Z,2.00
2023-03-28T08:50:11.494Z,1.40
2023-03-28T08:52:23.218Z,1.40
2023-03-28T08:54:37.198Z,1.80
2023-03-28T08:56:51.336Z,1.17
2023-03-28T08:59:10.822Z,1.95
2023-03-28T09:01:23.369Z,1.52
2023-03-28T09:03:31.246Z,2.20
2023-03-28T09:05:50.158Z,1.55
2023-03-28T09:08:02.731Z,2.42
2023-03-28T09:10:20.951Z,2.22
2023-03-28T09:12:53.737Z,1.70
2023-03-28T09:15:21.734Z,1.50
2023-03-28T09:17:49.392Z,1.50
2023-03-28T09:20:12.143Z,1.55
2023-03-28T09:22:57.122Z,1.98
2023-03-28T09:25:29.741Z,1.65
2023-03-28T09:27:43.699Z,2.08
2023-03-28T09:29:50.592Z,1.00
2023-03-28T09:32:04.816Z,1.10
2023-03-28T09:34:27.692Z,1.98
2023-03-28T09:36:49.812Z,1.42
2023-03-28T09:39:03.776Z,1.50
2023-03-28T09:41:19.306Z,1.80
2023-03-28T09:43:32.955Z,1.65
2023-03-28T09:46:03.031Z,1.67
2023-03-28T09:48:36.037Z,1.20
2023-03-28T09:50:47.615Z,1.45
2023-03-28T09:52:57.777Z,1.83
2023-03-28T09:55:03.315Z,1.35
2023-03-28T09:57:10.881Z,2.00
2023-03-28T09:59:29.240Z,2.15
2023-03-28T10:01:44.256Z,1.23
2023-03-28T10:03:59.417Z,1.63
2023-03-28T10:06:43.787Z,2.13
2023-03-28T10:08:49.307Z,1.90
2023-03-28T10:11:03.868Z,1.55
2023-03-28T10:13:13.759Z,1.60
2023-03-28T10:15:43.995Z,2.00
2023-03-28T10:18:08.532Z,1.42
2023-03-28T10:20:26.411Z,1.67
2023-03-28T10:22:45.290Z,2.00
2023-03-28T10:24:53.470Z,2.20
2023-03-28T10:27:02.018Z,1.50
2023-03-28T10:29:10.585Z,1.65
2023-03-28T10:31:29.593Z,1.95
2023-03-28T10:33:55.918Z,1.75
2023-03-28T10:36:32.766Z,1.13
2023-03-28T10:38:50.704Z,1.65
2023-03-28T10:41:25.279Z,1.60
2023-03-28T10:44:28.848Z,1.30
2023-03-28T10:46:42.974Z,1.50
2023-03-28T10:49:04.828Z,1.20
2023-03-28T10:51:22.340Z,1.40
2023-03-28T10:53:52.132Z,1.58
2023-03-28T10:56:18.992Z,1.05
2023-03-28T10:58:36.423Z,1.33
2023-03-28T11:01:02.651Z,1.52
2023-03-28T11:03:33.046Z,1.58
2023-03-28T11:05:54.891Z,1.42
2023-03-28T11:08:32.955Z,1.38
2023-03-28T11:11:01.887Z,1.67
2023-03-28T11:13:29.288Z,1.58
2023-03-28T11:15:43.199Z,1.92
2023-03-28T11:18:36.369Z,1.55
2023-03-28T11:20:57.040Z,1.23
2023-03-28T11:23:29.193Z,1.65
2023-03-28T11:26:06.008Z,1.42
2023-03-28T11:28:56.184Z,1.65
2023-03-28T11:31:18.854Z,1.92
2023-03-28T11:33:54.212Z,1.30
2023-03-28T11:36:07.559Z,1.75
2023-03-28T11:38:22.472Z,1.75
2023-03-28T11:40:36.674Z,1.90
2023-03-28T11:42:54.167Z,1.48
2023-03-28T11:45:10.097Z,1.70
2023-03-28T11:47:21.272Z,1.50
2023-03-28T11:49:41.108Z,1.92
2023-03-28T11:52:05.426Z,1.30
2023-03-28T11:54:19.845Z,0.85
2023-03-28T11:56:42.814Z,1.55
2023-03-28T11:59:02.333Z,1.15
2023-03-28T12:01:17.482Z,2.30
2023-03-28T12:03:29.193Z,1.08
2023-03-28T12:05:42.630Z,1.30
2023-03-28T12:07:59.349Z,1.20
2023-03-28T12:10:22.416Z,1.52
2023-03-28T12:12:32.663Z,1.58
2023-03-28T12:14:52.787Z,1.67
2023-03-28T12:17:21.619Z,1.92
2023-03-28T12:19:38.563Z,1.27
2023-03-28T12:21:52.138Z,1.48
2023-03-28T12:24:13.805Z,1.63
2023-03-28T12:26:55.467Z,1.58
2023-03-28T12:29:08.704Z,1.50
2023-03-28T12:31:25.233Z,1.65
2023-03-28T12:33:58.588Z,1.65
2023-03-28T12:36:39.231Z,1.73
2023-03-28T12:39:03.924Z,1.50
2023-03-28T12:41:15.613Z,1.60
2023-03-28T12:43:28.870Z,1.55
2023-03-28T12:45:36.362Z,1.58
2023-03-28T12:47:49.872Z,1.85
2023-03-28T12:50:01.437Z,1.42
2023-03-28T12:52:10.934Z,1.63
2023-03-28T12:54:29.353Z,2.47
2023-03-28T12:56:50.376Z,1.83
2023-03-28T12:58:56.721Z,1.80
2023-03-28T13:01:39.725Z,1.85
2023-03-28T13:04:17.400Z,1.90
2023-03-28T13:06:45.786Z,1.85
2023-03-28T13:09:11.084Z,1.98
2023-03-28T13:11:27.901Z,1.60
2023-03-28T13:13:48.169Z,1.50
2023-03-28T13:16:04.810Z,1.67
2023-03-28T13:18:37.102Z,1.55
2023-03-28T13:20:52.185Z,2.28
2023-03-28T13:23:02.328Z,1.75
2023-03-28T13:25:32.531Z,1.67
2023-03-28T13:27:39.398Z,1.60
2023-03-28T13:29:53.669Z,1.67
2023-03-28T13:32:09.383Z,1.63
2023-03-28T13:34:32.162Z,1.55
2023-03-28T13:36:39.907Z,1.50
2023-03-28T13:41:00.149Z,1.02
2023-03-28T13:43:29.017Z,0.90
2023-03-28T13:45:40.677Z,1.25
2023-03-28T13:47:45.968Z,1.58
2023-03-28T13:50:03.375Z,1.13
2023-03-28T13:52:18.435Z,1.23
2023-03-28T13:54:24.253Z,0.88
2023-03-28T13:56:32.790Z,1.48
2023-03-28T13:58:39.733Z,1.25
2023-03-28T14:00:45.057Z,1.13
2023-03-28T14:02:55.750Z,1.05
2023-03-28T14:05:22.922Z,1.10
2023-03-28T14:07:32.230Z,1.38
2023-03-28T14:09:41.031Z,1.08
2023-03-28T14:11:51.057Z,1.15
2023-03-28T14:14:09.487Z,1.20
2023-03-28T14:16:19.257Z,1.00
2023-03-28T14:18:34.443Z,1.05
2023-03-28T14:20:42.481Z,0.85
2023-03-28T14:23:00.319Z,1.00
2023-03-28T14:25:14.664Z,0.93
2023-03-28T14:27:35.411Z,1.40
2023-03-28T14:29:55.367Z,1.13
2023-03-28T14:32:00.905Z,1.17
2023-03-28T14:34:21.383Z,1.25
2023-03-28T14:36:31.314Z,1.25
2023-03-28T14:38:41.309Z,0.95
2023-03-28T14:40:48.282Z,1.30
2023-03-28T14:43:02.995Z,1.10
2023-03-28T14:45:16.976Z,1.17
2023-03-28T14:47:31.439Z,1.00
2023-03-28T14:49:37.436Z,1.33
2023-03-28T14:51:50.301Z,1.15
2023-03-28T14:53:59.389Z,0.90
2023-03-28T14:56:11.177Z,1.13
2023-03-28T14:58:16.676Z,1.10
2023-03-28T15:00:27.669Z,1.40
2023-03-28T15:02:41.284Z,1.40
2023-03-28T15:04:49.134Z,1.30
2023-03-28T15:07:01.134Z,1.40
2023-03-28T15:09:28.652Z,1.40
2023-03-28T15:11:37.572Z,1.33
2023-03-28T15:13:44.314Z,1.17
2023-03-28T15:15:51.849Z,1.38
2023-03-28T15:18:01.400Z,1.20
2023-03-28T15:20:08.444Z,1.15
2023-03-28T15:22:20.071Z,1.40
2023-03-28T15:24:29.655Z,1.45
2023-03-28T15:26:40.304Z,1.60
2023-03-28T15:28:47.076Z,1.65
2023-03-28T15:30:53.056Z,1.10
2023-03-28T15:33:07.067Z,1.40
2023-03-28T15:35:40.982Z,1.20
2023-03-28T15:37:47.474Z,1.17
2023-03-28T15:39:55.423Z,1.27
2023-03-28T15:42:04.412Z,1.38
2023-03-28T15:44:30.087Z,1.30
2023-03-28T15:46:38.511Z,1.08
2023-03-28T15:48:45.730Z,1.70
2023-03-28T15:50:58.103Z,1.30
2023-03-28T15:53:08.866Z,1.23
2023-03-28T15:55:27.907Z,1.70
2023-03-28T15:57:34.163Z,1.42
2023-03-28T15:59:43.969Z,2.40
2023-03-28T16:01:51.682Z,1.95
2023-03-28T16:04:33.125Z,1.23
2023-03-28T16:06:47.341Z,1.42
2023-03-28T16:08:54.244Z,1.40
2023-03-28T16:11:05.263Z,1.80
2023-03-28T16:13:16.932Z,1.58
2023-03-28T16:15:44.035Z,1.35
2023-03-28T16:18:12.476Z,0.93
2023-03-28T16:20:27.329Z,1.10
2023-03-28T16:22:35.456Z,0.90
2023-03-28T16:24:43.081Z,1.50
2023-03-28T16:28:57.797Z,1.30
2023-03-28T16:31:02.921Z,1.17
2023-03-28T16:33:08.798Z,1.10
2023-03-28T16:35:16.479Z,1.42
2023-03-28T16:37:24.642Z,1.00
2023-03-28T16:39:31.053Z,1.08
2023-03-28T16:41:37.357Z,1.20
2023-03-28T16:43:47.505Z,1.00
2023-03-28T16:45:53.040Z,1.08
2023-03-28T16:48:00.927Z,1.33
2023-03-28T16:50:07.499Z,1.13
2023-03-28T16:52:17.202Z,0.70
2023-03-28T16:54:22.440Z,0.90
2023-03-28T16:56:30.293Z,0.85
2023-03-28T16:58:36.014Z,1.30
2023-03-28T17:00:48.096Z,1.17
2023-03-28T17:02:54.992Z,1.13
2023-03-28T17:05:00.803Z,1.10
2023-03-28T17:07:06.268Z,1.23
2023-03-28T17:09:11.869Z,1.20
2023-03-28T17:11:18.197Z,1.30
2023-03-28T17:13:24.135Z,1.08
2023-03-28T17:15:30.953Z,1.17
2023-03-28T17:17:41.071Z,0.82
2023-03-28T17:19:46.168Z,1.23
2023-03-28T17:21:53.805Z,1.40
2023-03-28T17:23:59.941Z,1.00
2023-03-28T17:26:08.602Z,1.20
2023-03-28T17:28:13.856Z,1.20
2023-03-28T17:30:18.929Z,1.65
2023-03-28T17:32:24.129Z,1.65
2023-03-28T17:34:36.103Z,1.30
2023-03-28T17:36:42.983Z,1.33
2023-03-28T17:38:48.884Z,1.30
2023-03-28T17:40:53.994Z,1.10
2023-03-28T17:43:01.702Z,1.30
2023-03-28T17:45:08.540Z,1.42
2023-03-28T17:47:13.694Z,1.52
2023-03-28T17:49:19.790Z,1.27
2023-03-28T17:51:28.462Z,1.05
2023-03-28T17:53:39.605Z,1.05
2023-03-28T17:55:46.091Z,1.50
2023-03-28T17:57:51.791Z,1.23
2023-03-28T17:59:57.720Z,1.40
2023-03-28T18:02:06.022Z,1.52
2023-03-28T18:04:13.698Z,1.17
2023-03-28T18:06:41.598Z,2.50
2023-03-28T18:08:47.060Z,7.15
2023-03-28T18:10:52.183Z,4.50
2023-03-28T18:12:59.777Z,2.85
2023-03-28T18:15:05.898Z,1.80
2023-03-28T18:17:11.013Z,2.42
2023-03-28T18:19:18.454Z,3.67
2023-03-28T18:21:24.281Z,3.50
2023-03-28T18:23:32.102Z,1.85
2023-03-28T18:25:38.879Z,1.10
2023-03-28T18:27:43.939Z,1.08
2023-03-28T18:29:51.900Z,1.15
2023-03-28T18:31:58.754Z,1.05
2023-03-28T18:34:05.540Z,1.33
2023-03-28T18:36:16.068Z,1.42
2023-03-28T18:38:21.143Z,1.42
2023-03-28T18:40:28.792Z,1.23
2023-03-28T18:42:34.593Z,1.45
2023-03-28T18:44:40.987Z,1.42
2023-03-28T18:46:47.983Z,1.13
2023-03-28T18:48:57.096Z,2.27
2023-03-28T18:51:07.277Z,1.65
2023-03-28T18:53:12.409Z,1.10
2023-03-28T18:55:18.939Z,1.38
2023-03-28T18:57:29.290Z,1.52
2023-03-28T18:59:34.474Z,1.35
2023-03-28T19:01:42.310Z,1.30
2023-03-28T19:03:52.587Z,2.17
2023-03-28T19:05:59.427Z,2.70
2023-03-28T19:08:05.231Z,3.47
2023-03-28T19:10:13.516Z,4.13
2023-03-28T19:12:21.044Z,4.40
2023-03-28T19:14:28.887Z,3.90
2023-03-28T19:16:36.763Z,4.60
2023-03-28T19:18:43.150Z,1.80
2023-03-28T19:20:52.459Z,2.53
2023-03-28T19:22:58.136Z,2.95
2023-03-28T19:25:03.499Z,2.17
2023-03-28T19:27:12.126Z,2.10
2023-03-28T19:29:17.181Z,2.65
2023-03-28T19:31:25.682Z,2.30
2023-03-28T19:33:31.807Z,2.20
2023-03-28T19:35:36.943Z,2.42
2023-03-28T19:37:42.329Z,2.28
2023-03-28T19:39:47.458Z,2.53
2023-03-28T19:41:52.553Z,2.42
2023-03-28T19:43:58.098Z,2.78
2023-03-28T19:46:09.235Z,2.25
2023-03-28T19:48:17.306Z,2.75
2023-03-28T19:50:25.088Z,2.53
2023-03-28T19:54:35.083Z,2.33
2023-03-28T19:56:43.670Z,2.50
2023-03-28T19:58:49.293Z,2.40
2023-03-28T20:00:55.897Z,3.10
2023-03-28T20:03:02.897Z,2.30
2023-03-28T20:05:13.134Z,2.60
2023-03-28T20:07:19.474Z,2.45
2023-03-28T20:09:27.017Z,2.65
2023-03-28T20:11:33.526Z,2.72
2023-03-28T20:13:41.507Z,2.25
2023-03-28T20:15:48.999Z,2.25
2023-03-28T20:17:54.357Z,2.20
2023-03-28T20:20:00.163Z,2.42
2023-03-28T20:22:13.185Z,2.92
2023-03-28T20:24:20.756Z,2.88
2023-03-28T20:26:27.786Z,2.97
2023-03-28T20:28:33.973Z,3.08
2023-03-28T20:30:39.408Z,2.72
2023-03-28T20:32:44.641Z,2.42
2023-03-28T20:34:54.012Z,3.05
2023-03-28T20:37:02.226Z,3.30
2023-03-28T20:39:11.720Z,2.70
2023-03-28T20:41:19.705Z,2.80
2023-03-28T20:47:43.061Z,2.78
2023-03-28T20:49:51.482Z,3.20
2023-03-28T20:54:06.718Z,3.10
2023-03-28T20:56:18.977Z,3.47
2023-03-28T20:58:24.367Z,3.40
2023-03-28T21:00:33.944Z,2.97
2023-03-28T21:02:39.859Z,2.88
2023-03-28T21:04:45.132Z,2.53
2023-03-28T21:06:50.471Z,3.05
2023-03-28T21:08:59.205Z,3.33
2023-03-28T21:11:05.071Z,3.00
2023-03-28T21:13:16.150Z,3.20
2023-03-28T21:15:30.710Z,3.00
2023-03-28T21:17:44.711Z,2.85
2023-03-28T21:19:52.817Z,3.22
2023-03-28T21:22:01.492Z,3.10
2023-03-28T21:24:08.299Z,2.95
2023-03-28T21:26:22.915Z,3.10
2023-03-28T21:28:35.886Z,2.58
2023-03-28T21:30:41.247Z,3.10
2023-03-28T21:32:49.153Z,3.58
2023-03-28T21:34:56.548Z,2.90
2023-03-28T21:37:01.695Z,3.20
2023-03-28T21:39:08.516Z,3.10
2023-03-28T21:41:19.326Z,3.42
2023-03-28T21:43:27.309Z,3.88
2023-03-28T21:45:37.105Z,4.68
2023-03-28T21:47:45.135Z,3.53
2023-03-28T21:49:50.723Z,3.75
2023-03-28T21:52:07.154Z,4.63
2023-03-28T21:54:12.680Z,4.22
2023-03-28T21:56:21.810Z,3.85
2023-03-28T21:58:29.141Z,3.60
2023-03-28T22:00:37.177Z,3.60
2023-03-28T22:02:52.339Z,3.15
2023-03-28T22:04:57.962Z,2.78
2023-03-28T22:07:03.976Z,2.33
2023-03-28T22:09:09.630Z,2.42
2023-03-28T22:11:18.029Z,2.10
2023-03-28T22:13:25.464Z,1.50
2023-03-28T22:15:37.914Z,1.67
2023-03-28T22:17:44.112Z,1.17
2023-03-28T22:19:50.134Z,0.98
2023-03-28T22:21:55.893Z,0.85
2023-03-28T22:24:18.751Z,1.40
2023-03-28T22:26:30.730Z,1.42
2023-03-28T22:28:35.979Z,1.88
2023-03-28T22:30:47.471Z,1.83
2023-03-28T22:32:58.514Z,2.00
2023-03-28T22:35:03.746Z,1.48
2023-03-28T22:37:14.051Z,1.90
2023-03-28T22:39:21.857Z,1.88
2023-03-28T22:41:32.168Z,1.70
2023-03-28T22:43:44.242Z,1.63
2023-03-28T22:46:03.478Z,1.58
2023-03-28T22:48:19.282Z,1.60
2023-03-28T22:50:24.854Z,1.80
2023-03-28T22:52:31.770Z,2.45
2023-03-28T22:54:42.823Z,2.13
2023-03-28T22:56:49.249Z,1.67
2023-03-28T22:59:02.503Z,1.90
2023-03-28T23:01:10.999Z,1.80
2023-03-28T23:03:18.160Z,2.05
2023-03-28T23:05:23.968Z,1.70
2023-03-28T23:07:38.622Z,1.63
2023-03-28T23:09:47.239Z,1.80
2023-03-28T23:11:56.145Z,1.90
2023-03-28T23:14:02.082Z,2.35
2023-03-28T23:16:13.697Z,1.85
2023-03-28T23:18:34.678Z,1.90
2023-03-28T23:20:44.269Z,2.10
2023-03-28T23:22:53.868Z,2.50
2023-03-28T23:25:03.731Z,3.45
2023-03-28T23:27:10.805Z,2.00
2023-03-28T23:29:18.867Z,2.33
2023-03-28T23:31:28.426Z,2.13
2023-03-28T23:33:34.486Z,3.08
2023-03-28T23:35:39.852Z,3.08
2023-03-28T23:37:47.546Z,2.78
2023-03-28T23:39:52.625Z,2.75
2023-03-28T23:41:59.629Z,3.25
2023-03-28T23:44:07.210Z,2.38
2023-03-28T23:46:13.815Z,2.40
2023-03-28T23:48:21.778Z,2.47
2023-03-28T23:52:31.991Z,2.13
2023-03-28T23:54:39.678Z,2.40
2023-03-28T23:56:44.942Z,2.65
2023-03-28T23:58:50.321Z,2.58
